createdAt,value
2023-05-02T00:00:13.983Z,14.00
2023-05-02T00:03:00.466Z,13.90
2023-05-02T00:05:46.294Z,14.00
2023-05-02T00:08:31.985Z,13.90
2023-05-02T00:11:17.771Z,13.90
2023-05-02T00:14:03.535Z,13.90
2023-05-02T00:16:49.441Z,13.90
2023-05-02T00:19:38.791Z,13.90
2023-05-02T00:22:24.268Z,13.80
2023-05-02T00:25:10.401Z,13.90
2023-05-02T00:27:56.230Z,13.80
2023-05-02T00:30:45.702Z,13.80
2023-05-02T00:33:31.278Z,13.80
2023-05-02T00:36:18.414Z,13.80
2023-05-02T00:39:04.824Z,13.80
2023-05-02T00:41:56.166Z,13.80
2023-05-02T00:44:41.679Z,13.80
2023-05-02T00:47:27.752Z,13.80
2023-05-02T00:50:13.758Z,13.80
2023-05-02T00:53:00.609Z,13.80
2023-05-02T00:55:47.066Z,13.80
2023-05-02T00:58:32.631Z,13.80
2023-05-02T01:01:29.821Z,13.80
2023-05-02T01:04:40.189Z,13.80
2023-05-02T01:07:44.003Z,13.80
2023-05-02T01:10:48.174Z,13.80
2023-05-02T01:13:33.979Z,13.80
2023-05-02T01:16:21.391Z,13.80
2023-05-02T01:19:09.916Z,13.70
2023-05-02T01:21:56.877Z,13.70
2023-05-02T01:24:45.529Z,13.70
2023-05-02T01:27:31.330Z,13.70
2023-05-02T01:30:19.103Z,13.70
2023-05-02T01:33:05.789Z,13.70
2023-05-02T01:35:52.628Z,13.70
2023-05-02T01:38:39.227Z,13.80
2023-05-02T01:41:30.075Z,13.70
2023-05-02T01:44:16.824Z,13.70
2023-05-02T01:47:05.490Z,13.70
2023-05-02T01:49:51.642Z,13.70
2023-05-02T01:52:38.553Z,13.70
2023-05-02T01:55:24.649Z,13.70
2023-05-02T01:58:11.285Z,13.70
2023-05-02T02:00:59.990Z,14.50
2023-05-02T02:03:46.792Z,13.70
2023-05-02T02:06:32.626Z,13.70
2023-05-02T02:09:18.715Z,13.80
2023-05-02T02:12:04.378Z,13.80
2023-05-02T02:14:55.076Z,13.80
2023-05-02T02:17:55.498Z,13.70
2023-05-02T02:20:43.438Z,13.70
2023-05-02T02:23:30.358Z,13.70
2023-05-02T02:26:18.043Z,13.70
2023-05-02T02:29:03.703Z,13.70
2023-05-02T02:31:49.243Z,13.70
2023-05-02T02:34:34.956Z,13.70
2023-05-02T02:37:24.660Z,13.70
2023-05-02T02:40:10.858Z,13.70
2023-05-02T02:43:26.097Z,13.70
2023-05-02T02:46:11.545Z,13.70
2023-05-02T02:49:02.864Z,13.70
2023-05-02T02:52:02.795Z,13.70
2023-05-02T02:54:59.468Z,13.70
2023-05-02T02:58:05.835Z,13.70
2023-05-02T03:00:51.918Z,13.70
2023-05-02T03:03:40.054Z,13.70
2023-05-02T03:06:25.822Z,13.60
2023-05-02T03:09:17.411Z,13.70
2023-05-02T03:12:03.360Z,13.60
2023-05-02T03:14:49.130Z,13.60
2023-05-02T03:17:36.114Z,13.60
2023-05-02T03:20:22.003Z,13.60
2023-05-02T03:23:07.582Z,13.60
2023-05-02T03:25:53.750Z,13.60
2023-05-02T03:28:46.614Z,13.60
2023-05-02T03:31:36.757Z,13.60
2023-05-02T03:34:23.654Z,13.50
2023-05-02T03:37:11.034Z,13.50
2023-05-02T03:39:56.831Z,13.50
2023-05-02T03:42:42.643Z,13.50
2023-05-02T03:45:40.419Z,13.50
2023-05-02T03:48:27.904Z,13.50
2023-05-02T03:51:14.048Z,13.50
2023-05-02T03:54:03.112Z,13.50
2023-05-02T03:56:48.789Z,13.50
2023-05-02T03:59:47.764Z,13.50
2023-05-02T04:02:43.109Z,13.50
2023-05-02T04:05:32.941Z,13.50
2023-05-02T04:08:19.138Z,13.50
2023-05-02T04:11:05.052Z,13.50
2023-05-02T04:13:53.384Z,13.50
2023-05-02T04:16:39.748Z,13.50
2023-05-02T04:19:26.252Z,13.50
2023-05-02T04:22:12.256Z,13.50
2023-05-02T04:25:03.471Z,13.50
2023-05-02T04:27:50.838Z,13.50
2023-05-02T04:30:42.235Z,13.50
2023-05-02T04:33:30.555Z,13.50
2023-05-02T04:36:17.119Z,13.50
2023-05-02T04:39:07.764Z,13.50
2023-05-02T04:41:56.290Z,13.50
2023-05-02T04:44:44.851Z,13.40
2023-05-02T04:47:31.727Z,13.40
2023-05-02T04:50:21.500Z,13.40
2023-05-02T04:53:07.346Z,13.40
2023-05-02T04:55:54.234Z,13.40
2023-05-02T04:58:40.230Z,13.40
2023-05-02T05:01:28.346Z,13.40
2023-05-02T05:04:15.159Z,13.40
2023-05-02T05:07:01.549Z,13.40
2023-05-02T05:09:48.479Z,13.40
2023-05-02T05:12:34.619Z,13.40
2023-05-02T05:15:25.587Z,13.40
2023-05-02T05:18:15.380Z,13.40
2023-05-02T05:21:00.925Z,13.40
2023-05-02T05:23:47.754Z,13.40
2023-05-02T05:26:39.339Z,13.40
2023-05-02T05:29:24.717Z,13.40
2023-05-02T05:32:10.710Z,13.40
2023-05-02T05:34:56.227Z,13.40
2023-05-02T05:37:46.074Z,13.40
2023-05-02T05:40:34.432Z,13.40
2023-05-02T05:43:20.417Z,13.40
2023-05-02T05:46:05.911Z,13.40
2023-05-02T05:48:53.406Z,13.40
2023-05-02T05:51:39.671Z,13.40
2023-05-02T05:54:25.362Z,13.40
2023-05-02T05:57:12.150Z,13.40
2023-05-02T05:59:57.973Z,13.50
2023-05-02T06:02:44.112Z,13.50
2023-05-02T06:05:37.166Z,13.50
2023-05-02T06:08:23.138Z,13.50
2023-05-02T06:11:10.241Z,13.50
2023-05-02T06:13:56.122Z,13.50
2023-05-02T06:16:42.528Z,13.60
2023-05-02T06:19:28.311Z,13.50
2023-05-02T06:22:14.317Z,13.50
2023-05-02T06:25:00.995Z,13.50
2023-05-02T06:27:46.447Z,13.50
2023-05-02T06:30:32.541Z,13.50
2023-05-02T06:33:18.342Z,13.50
2023-05-02T06:36:04.234Z,13.50
2023-05-02T06:38:49.637Z,13.50
2023-05-02T06:41:35.292Z,13.60
2023-05-02T06:44:21.185Z,13.60
2023-05-02T06:47:08.114Z,13.70
2023-05-02T06:49:53.911Z,13.80
2023-05-02T06:52:39.462Z,13.90
2023-05-02T06:55:25.166Z,13.90
2023-05-02T06:58:11.077Z,14.00
2023-05-02T07:00:57.003Z,14.00
2023-05-02T07:03:42.788Z,14.10
2023-05-02T07:06:29.669Z,14.10
2023-05-02T07:09:15.353Z,14.10
2023-05-02T07:12:05.252Z,14.10
2023-05-02T07:14:52.557Z,14.20
2023-05-02T07:17:38.375Z,14.30
2023-05-02T07:20:24.058Z,14.30
2023-05-02T07:23:10.076Z,14.40
2023-05-02T07:25:56.216Z,14.60
2023-05-02T07:28:41.772Z,14.70
2023-05-02T07:31:28.264Z,14.90
2023-05-02T07:34:14.290Z,15.00
2023-05-02T07:37:00.052Z,15.20
2023-05-02T07:39:45.827Z,15.20
2023-05-02T07:42:32.015Z,15.20
2023-05-02T07:45:18.104Z,15.20
2023-05-02T07:48:04.072Z,15.20
2023-05-02T07:50:51.711Z,15.20
2023-05-02T07:53:37.588Z,15.00
2023-05-02T07:56:23.174Z,15.00
2023-05-02T07:59:09.762Z,14.90
2023-05-02T08:02:02.229Z,14.90
2023-05-02T08:04:49.245Z,15.00
2023-05-02T08:07:46.583Z,15.10
2023-05-02T08:10:32.320Z,15.10
2023-05-02T08:13:18.210Z,15.10
2023-05-02T08:16:04.207Z,15.10
2023-05-02T08:18:50.183Z,15.10
2023-05-02T08:21:35.924Z,15.20
2023-05-02T08:24:22.076Z,15.20
2023-05-02T08:27:07.975Z,15.20
2023-05-02T08:29:53.648Z,15.30
2023-05-02T08:32:39.863Z,15.40
2023-05-02T08:35:26.517Z,15.50
2023-05-02T08:38:12.500Z,15.60
2023-05-02T08:40:58.333Z,15.80
2023-05-02T08:43:44.580Z,15.90
2023-05-02T08:46:31.161Z,16.10
2023-05-02T08:49:18.258Z,16.20
2023-05-02T08:52:07.756Z,16.40
2023-05-02T08:54:53.814Z,16.50
2023-05-02T08:57:39.925Z,16.60
2023-05-02T09:00:26.949Z,16.60
2023-05-02T09:03:32.172Z,16.50
2023-05-02T09:06:19.404Z,16.50
2023-05-02T09:09:05.250Z,16.50
2023-05-02T09:11:51.930Z,16.60
2023-05-02T09:14:37.785Z,16.60
2023-05-02T09:17:23.860Z,16.70
2023-05-02T09:20:13.209Z,16.60
2023-05-02T09:22:59.567Z,16.70
2023-05-02T09:25:45.994Z,16.90
2023-05-02T09:28:38.288Z,16.90
2023-05-02T09:31:49.681Z,16.90
2023-05-02T09:34:32.899Z,16.90
2023-05-02T09:37:36.885Z,16.80
2023-05-02T09:40:23.329Z,16.80
2023-05-02T09:43:16.824Z,16.70
2023-05-02T09:46:04.336Z,16.70
2023-05-02T09:48:54.447Z,16.50
2023-05-02T09:51:40.430Z,16.60
2023-05-02T09:54:38.498Z,16.40
2023-05-02T09:57:39.325Z,16.30
2023-05-02T10:00:40.650Z,16.20
2023-05-02T10:03:27.677Z,16.20
2023-05-02T10:06:13.420Z,16.20
2023-05-02T10:08:59.861Z,16.20
2023-05-02T10:11:45.921Z,16.20
2023-05-02T10:14:31.913Z,16.20
2023-05-02T10:17:23.600Z,16.20
2023-05-02T10:20:11.192Z,16.30
2023-05-02T10:22:59.470Z,16.30
2023-05-02T10:25:45.639Z,16.30
2023-05-02T10:28:31.376Z,16.30
2023-05-02T10:31:19.597Z,16.20
2023-05-02T10:34:05.331Z,16.20
2023-05-02T10:36:51.202Z,16.20
2023-05-02T10:39:37.924Z,16.20
2023-05-02T10:42:23.782Z,16.20
2023-05-02T10:45:28.416Z,16.40
2023-05-02T10:48:15.610Z,16.40
2023-05-02T10:51:08.372Z,16.50
2023-05-02T10:54:15.360Z,16.40
2023-05-02T10:57:05.872Z,16.40
2023-05-02T10:59:51.850Z,16.50
2023-05-02T11:02:43.731Z,16.60
2023-05-02T11:05:29.296Z,16.60
2023-05-02T11:08:23.253Z,16.60
2023-05-02T11:11:36.084Z,16.60
2023-05-02T11:14:29.295Z,16.60
2023-05-02T11:17:15.636Z,16.60
2023-05-02T11:20:01.846Z,16.70
2023-05-02T11:22:47.637Z,16.60
2023-05-02T11:25:34.901Z,16.60
2023-05-02T11:28:39.579Z,16.50
2023-05-02T11:31:28.382Z,16.60
2023-05-02T11:34:14.933Z,16.60
2023-05-02T11:37:00.600Z,16.70
2023-05-02T11:39:48.919Z,16.90
2023-05-02T11:42:34.868Z,17.00
2023-05-02T11:45:21.262Z,17.10
2023-05-02T11:48:07.813Z,17.10
2023-05-02T11:50:57.528Z,17.10
2023-05-02T11:53:43.400Z,17.20
2023-05-02T11:56:29.174Z,17.10
2023-05-02T11:59:14.737Z,17.20
2023-05-02T12:02:00.619Z,17.00
2023-05-02T12:04:46.221Z,17.30
2023-05-02T12:07:38.598Z,17.40
2023-05-02T12:10:35.701Z,17.60
2023-05-02T12:13:23.328Z,17.50
2023-05-02T12:16:09.285Z,17.50
2023-05-02T12:18:58.061Z,17.60
2023-05-02T12:21:43.698Z,16.40
2023-05-02T12:24:29.861Z,17.60
2023-05-02T12:27:16.212Z,17.50
2023-05-02T12:30:03.104Z,17.50
2023-05-02T12:32:56.324Z,17.40
2023-05-02T12:35:42.654Z,17.30
2023-05-02T12:38:28.860Z,17.20
2023-05-02T12:41:14.469Z,17.20
2023-05-02T12:44:01.121Z,17.10
2023-05-02T12:47:00.964Z,17.20
2023-05-02T12:49:52.939Z,17.30
2023-05-02T12:52:54.975Z,17.40
2023-05-02T12:55:41.472Z,17.40
2023-05-02T12:58:28.583Z,17.30
2023-05-02T13:01:15.326Z,17.30
2023-05-02T13:04:00.946Z,17.20
2023-05-02T13:06:47.306Z,17.20
2023-05-02T13:09:32.900Z,17.40
2023-05-02T13:12:18.523Z,17.60
2023-05-02T13:15:04.891Z,17.50
2023-05-02T13:17:51.739Z,17.70
2023-05-02T13:20:37.340Z,17.70
2023-05-02T13:23:23.008Z,17.70
2023-05-02T13:26:09.221Z,17.60
2023-05-02T13:28:56.504Z,17.50
2023-05-02T13:31:42.942Z,17.30
2023-05-02T13:34:28.537Z,17.40
2023-05-02T13:37:14.069Z,17.50
2023-05-02T13:39:59.794Z,17.60
2023-05-02T13:42:45.533Z,17.60
2023-05-02T13:45:31.243Z,17.60
2023-05-02T13:48:17.015Z,17.60
2023-05-02T13:51:02.784Z,17.50
2023-05-02T13:53:48.315Z,17.20
2023-05-02T13:56:34.184Z,17.20
2023-05-02T13:59:19.723Z,17.30
2023-05-02T14:02:06.083Z,17.30
2023-05-02T14:04:51.896Z,17.10
2023-05-02T14:07:37.304Z,17.20
2023-05-02T14:10:23.089Z,17.20
2023-05-02T14:13:08.931Z,17.40
2023-05-02T14:15:54.893Z,17.50
2023-05-02T14:18:40.777Z,17.60
2023-05-02T14:21:27.182Z,17.60
2023-05-02T14:24:12.939Z,17.70
2023-05-02T14:26:58.771Z,17.70
2023-05-02T14:29:47.956Z,17.70
2023-05-02T14:32:34.087Z,17.80
2023-05-02T14:35:19.739Z,17.90
2023-05-02T14:38:05.490Z,18.00
2023-05-02T14:40:51.507Z,17.90
2023-05-02T14:43:37.959Z,17.70
2023-05-02T14:46:23.721Z,17.50
2023-05-02T14:49:09.848Z,17.60
2023-05-02T14:51:57.122Z,17.60
2023-05-02T14:54:44.178Z,17.90
2023-05-02T14:57:29.927Z,17.90
2023-05-02T15:00:16.460Z,17.80
2023-05-02T15:03:03.358Z,17.90
2023-05-02T15:05:51.088Z,17.90
2023-05-02T15:08:37.394Z,17.90
2023-05-02T15:11:23.604Z,17.90
2023-05-02T15:14:09.418Z,17.80
2023-05-02T15:16:55.256Z,17.50
2023-05-02T15:19:40.794Z,17.50
2023-05-02T15:22:26.752Z,17.50
2023-05-02T15:25:12.643Z,17.40
2023-05-02T15:27:58.668Z,17.50
2023-05-02T15:30:44.918Z,17.60
2023-05-02T15:33:30.463Z,17.50
2023-05-02T15:36:16.438Z,17.60
2023-05-02T15:39:01.870Z,17.60
2023-05-02T15:41:47.873Z,17.60
2023-05-02T15:44:34.723Z,17.60
2023-05-02T15:47:22.379Z,17.60
2023-05-02T15:50:10.817Z,17.60
2023-05-02T15:52:56.472Z,17.60
2023-05-02T15:55:43.181Z,17.60
2023-05-02T15:58:28.559Z,17.60
2023-05-02T16:01:14.281Z,17.60
2023-05-02T16:04:00.246Z,17.70
2023-05-02T16:06:45.882Z,17.80
2023-05-02T16:09:31.547Z,17.80
2023-05-02T16:12:18.164Z,17.80
2023-05-02T16:15:04.288Z,17.80
2023-05-02T16:17:50.887Z,17.70
2023-05-02T16:20:37.333Z,17.60
2023-05-02T16:23:23.610Z,17.60
2023-05-02T16:26:10.284Z,17.50
2023-05-02T16:28:57.436Z,17.30
2023-05-02T16:31:44.634Z,17.30
2023-05-02T16:34:32.072Z,17.20
2023-05-02T16:37:18.078Z,17.10
2023-05-02T16:40:05.868Z,17.10
2023-05-02T16:42:51.412Z,17.00
2023-05-02T16:45:37.243Z,17.00
2023-05-02T16:48:23.314Z,16.90
2023-05-02T16:51:08.914Z,16.90
2023-05-02T16:53:54.618Z,16.80
2023-05-02T16:56:42.025Z,16.80
2023-05-02T16:59:28.705Z,16.80
2023-05-02T17:02:15.222Z,16.80
2023-05-02T17:05:00.730Z,16.70
2023-05-02T17:07:46.763Z,16.70
2023-05-02T17:10:32.423Z,16.70
2023-05-02T17:13:18.314Z,16.70
2023-05-02T17:16:04.561Z,16.70
2023-05-02T17:18:50.497Z,16.60
2023-05-02T17:21:36.855Z,16.50
2023-05-02T17:24:22.812Z,16.50
2023-05-02T17:27:08.542Z,16.50
2023-05-02T17:29:54.361Z,16.50
2023-05-02T17:32:40.557Z,16.40
2023-05-02T17:35:26.113Z,16.40
2023-05-02T17:38:11.376Z,16.50
2023-05-02T17:40:57.153Z,16.40
2023-05-02T17:43:43.135Z,16.40
2023-05-02T17:46:28.458Z,16.40
2023-05-02T17:49:14.230Z,16.30
2023-05-02T17:52:00.005Z,16.30
2023-05-02T17:54:45.724Z,16.30
2023-05-02T17:57:31.305Z,16.30
2023-05-02T18:00:18.887Z,16.30
2023-05-02T18:03:04.584Z,16.30
2023-05-02T18:05:50.397Z,16.20
2023-05-02T18:08:35.968Z,16.20
2023-05-02T18:11:23.685Z,16.20
2023-05-02T18:14:09.092Z,16.10
2023-05-02T18:16:54.900Z,16.10
2023-05-02T18:19:41.244Z,16.10
2023-05-02T18:22:28.017Z,16.00
2023-05-02T18:25:13.263Z,16.00
2023-05-02T18:27:59.009Z,16.00
2023-05-02T18:30:44.913Z,16.00
2023-05-02T18:33:30.702Z,16.00
2023-05-02T18:36:20.644Z,15.90
2023-05-02T18:39:06.415Z,15.90
2023-05-02T18:41:52.019Z,15.90
2023-05-02T18:44:37.925Z,15.80
2023-05-02T18:47:24.667Z,15.80
2023-05-02T18:50:10.500Z,15.70
2023-05-02T18:52:56.027Z,15.70
2023-05-02T18:55:41.420Z,15.70
2023-05-02T18:58:27.042Z,15.70
2023-05-02T19:01:14.893Z,15.70
2023-05-02T19:04:02.144Z,15.60
2023-05-02T19:06:47.752Z,15.60
2023-05-02T19:09:33.219Z,15.60
2023-05-02T19:12:18.983Z,15.60
2023-05-02T19:15:06.527Z,15.60
2023-05-02T19:17:53.563Z,15.60
2023-05-02T19:20:39.338Z,15.60
2023-05-02T19:23:25.720Z,15.50
2023-05-02T19:26:15.136Z,15.50
2023-05-02T19:29:00.732Z,15.50
2023-05-02T19:31:46.609Z,15.50
2023-05-02T19:34:32.364Z,15.40
2023-05-02T19:37:20.815Z,15.40
2023-05-02T19:40:07.741Z,15.40
2023-05-02T19:42:53.852Z,15.40
2023-05-02T19:45:41.824Z,15.40
2023-05-02T19:48:27.547Z,15.40
2023-05-02T19:51:13.601Z,15.30
2023-05-02T19:53:59.116Z,15.30
2023-05-02T19:56:46.751Z,15.30
2023-05-02T19:59:33.585Z,15.30
2023-05-02T20:02:34.579Z,15.30
2023-05-02T20:05:40.976Z,15.30
2023-05-02T20:08:30.184Z,15.20
2023-05-02T20:11:15.937Z,15.20
2023-05-02T20:14:01.590Z,15.30
2023-05-02T20:16:47.628Z,15.30
2023-05-02T20:19:33.324Z,15.30
2023-05-02T20:22:19.065Z,15.30
2023-05-02T20:25:05.412Z,15.20
2023-05-02T20:27:51.066Z,15.20
2023-05-02T20:30:39.054Z,15.20
2023-05-02T20:33:27.514Z,15.20
2023-05-02T20:36:19.235Z,15.20
2023-05-02T20:39:07.477Z,15.20
2023-05-02T20:41:53.024Z,15.20
2023-05-02T20:44:39.153Z,15.20
2023-05-02T20:47:25.585Z,15.20
2023-05-02T20:50:11.633Z,15.20
2023-05-02T20:53:37.328Z,15.10
2023-05-02T20:56:17.118Z,15.10
2023-05-02T20:59:02.700Z,15.10
2023-05-02T21:01:48.336Z,15.10
2023-05-02T21:04:34.362Z,15.10
2023-05-02T21:07:20.150Z,15.10
2023-05-02T21:10:07.497Z,15.10
2023-05-02T21:12:53.098Z,15.10
2023-05-02T21:15:39.036Z,15.10
2023-05-02T21:18:24.450Z,15.10
2023-05-02T21:21:13.081Z,15.10
2023-05-02T21:23:59.007Z,15.10
2023-05-02T21:26:44.551Z,15.00
2023-05-02T21:29:30.031Z,15.10
2023-05-02T21:32:15.813Z,15.10
2023-05-02T21:35:01.473Z,15.10
2023-05-02T21:37:47.354Z,15.00
2023-05-02T21:40:34.203Z,15.00
2023-05-02T21:43:19.937Z,15.00
2023-05-02T21:46:06.021Z,15.10
2023-05-02T21:48:51.518Z,15.00
2023-05-02T21:51:39.138Z,15.00
2023-05-02T21:54:24.544Z,15.00
2023-05-02T21:57:10.135Z,15.00
2023-05-02T21:59:55.894Z,15.00
2023-05-02T22:02:41.763Z,15.00
2023-05-02T22:05:27.534Z,15.00
2023-05-02T22:08:13.516Z,15.00
2023-05-02T22:10:58.976Z,15.00
2023-05-02T22:13:44.841Z,15.00
2023-05-02T22:16:30.853Z,15.00
2023-05-02T22:19:17.753Z,15.00
2023-05-02T22:22:04.006Z,14.90
2023-05-02T22:24:49.620Z,14.90
2023-05-02T22:27:35.771Z,14.90
2023-05-02T22:30:21.573Z,15.00
2023-05-02T22:33:07.678Z,14.90
2023-05-02T22:35:53.584Z,15.00
2023-05-02T22:38:39.982Z,15.00
2023-05-02T22:41:25.539Z,14.90
2023-05-02T22:44:11.549Z,14.90
2023-05-02T22:46:57.577Z,14.90
2023-05-02T22:49:43.660Z,14.90
2023-05-02T22:52:30.075Z,14.90
2023-05-02T22:55:16.047Z,14.90
2023-05-02T22:58:01.534Z,14.90
2023-05-02T23:00:47.204Z,14.90
2023-05-02T23:03:33.275Z,14.90
2023-05-02T23:06:18.925Z,14.90
2023-05-02T23:09:04.353Z,14.90
2023-05-02T23:11:49.888Z,14.90
2023-05-02T23:14:35.734Z,14.90
2023-05-02T23:17:21.806Z,14.90
2023-05-02T23:20:11.410Z,14.90
2023-05-02T23:22:57.510Z,14.90
2023-05-02T23:25:42.869Z,14.90
2023-05-02T23:28:28.893Z,14.90
2023-05-02T23:31:14.503Z,14.80
2023-05-02T23:34:00.518Z,14.80
2023-05-02T23:36:45.988Z,14.80
2023-05-02T23:39:31.921Z,14.80
2023-05-02T23:42:17.683Z,14.80
2023-05-02T23:45:03.578Z,14.80
2023-05-02T23:47:49.069Z,14.70
2023-05-02T23:50:34.436Z,14.70
2023-05-02T23:53:20.164Z,14.70
2023-05-02T23:56:06.301Z,14.70
2023-05-02T23:58:51.717Z,14.70
